Hauptseite
METAR-TAF:

METAR-TAF

Flughäfen :

Flughafen Münster/Osnabrück

Münster-Osnabrück, Deutschland

Breite: 52-08N, Länge: 007-42E, Höhe: 48 m

Beobachtung

Neuester Wetterbericht von vor 29 Minuten, um 11:50 UTC
Wind 12 kt aus West/Südwest, variierte zwischen Südwest und West
Temperatur 23°C
Luftfeuchtigkeit 44%
Luftdruck 1021 hPa
Sichtweite 10 km oder mehr
Leicht bewölkt in der Höhe von 4600 ft
Aufgelockert bewölkt in der Höhe von 25000 ft

METAR: EDDG 181150Z 25012KT 220V280 9999 FEW046 SCT250 23/10 Q1021 NOSIG

Zeit: 14:19 (12:19 UTC)

Prognose

Neuester Wetterbericht von vor 1 Stunde und 19 Minuten, um 11:00 UTC
Gültige Prognose vom 18 um 12 UTC bis 19 um 12 UTC
Wind 12 kt aus West/Südwest
Sichtweite 10 km oder mehr
Leicht bewölkt in der Höhe von 4000 ft
Zeitweise
vom 18 um 22 UTC bis 19 um 08 UTC
Wind 3 kt aus unterschiedlichen Richtungen

TAF: EDDG 181100Z 1812/1912 24012KT 9999 FEW040 TEMPO 1822/1908 VRB03KT

Wetterbeobachtungen und Prognosen von mehr als 4000 Flughäfen (METAR und TAF Bericht).

Die verfügbaren Stationen werden durch gelbe und rote Markierungen auf der Karte dargestellt.

Führen Sie die Maus auf sie, um den Namen der Station zu sehen.

Darauf klicken, um die Beobachtung von Wetterbeobachtungen und Prognosen zu sehen.

Um die Karte zu ändern : klicken Sie auf den grünen Tasten mit einem schwarzen Kreuz Zum Vergrößern, auf den grünen Button mit einem Gedankenstrich zu verkleinern, oder auf die grünen Pfeile für benachbarte Karten.


METAR-TAF: